Time;durP1;ratioP1;P1;durP2;ratioP2;P2;SDS_P1;SDS_P2;PMS_P1;PMS_P2;Temp;Humidity;BMP_temperature;BMP_pressure;BME280_temperature;BME280_humidity;BME280_pressure;Samples;Min_cycle;Max_cycle;Signal;HPM_P1;HPM_P2
2022/02/18 00:00:44;;;;;;;0.40;0.40;;;7.30;99.90;;;;;;5014990;28;20175;-72
2022/02/18 00:03:09;;;;;;;0.32;0.32;;;7.30;99.90;;;;;;5015206;28;20195;-72
2022/02/18 00:05:36;;;;;;;0.30;0.30;;;7.30;99.90;;;;;;5014535;28;20221;-72
2022/02/18 00:08:01;;;;;;;0.30;0.30;;;7.40;99.90;;;;;;5014882;28;20186;-72
2022/02/18 00:10:27;;;;;;;0.30;0.30;;;7.40;99.90;;;;;;5014929;28;20179;-72
2022/02/18 00:12:53;;;;;;;0.30;0.30;;;7.40;99.90;;;;;;5014737;28;20188;-72
2022/02/18 00:15:18;;;;;;;0.30;0.30;;;7.70;99.90;;;;;;5014383;28;20409;-72
2022/02/18 00:17:44;;;;;;;0.40;0.40;;;7.60;99.90;;;;;;5014702;28;20282;-72
2022/02/18 00:20:10;;;;;;;0.40;0.40;;;7.50;99.90;;;;;;5013300;28;20226;-72
2022/02/18 00:22:36;;;;;;;0.30;0.30;;;7.50;99.90;;;;;;5014368;28;20195;-72
2022/02/18 00:25:03;;;;;;;0.30;0.30;;;7.50;99.90;;;;;;5014425;28;20439;-72
2022/02/18 00:27:29;;;;;;;0.30;0.30;;;7.30;99.90;;;;;;5014482;28;20210;-72
2022/02/18 00:29:55;;;;;;;0.30;0.30;;;;;;;;;;5014300;28;20171;-72
2022/02/18 00:32:21;;;;;;;0.30;0.30;;;7.10;99.90;;;;;;5014241;28;20298;-72
2022/02/18 00:34:47;;;;;;;0.30;0.30;;;7.10;99.90;;;;;;5014309;28;20276;-72
2022/02/18 00:37:12;;;;;;;0.30;0.30;;;7.10;99.90;;;;;;5014134;28;20531;-72
2022/02/18 00:39:40;;;;;;;0.30;0.30;;;;;;;;;;5014364;28;20502;-72
2022/02/18 00:42:06;;;;;;;0.30;0.30;;;7.30;99.90;;;;;;5014247;28;20195;-72
2022/02/18 00:44:32;;;;;;;0.40;0.40;;;7.40;99.90;;;;;;5014066;28;20580;-72
2022/02/18 00:46:58;;;;;;;0.30;0.30;;;;;;;;;;5013824;28;20208;-72
2022/02/18 00:49:23;;;;;;;0.30;0.30;;;7.40;99.90;;;;;;5014407;28;20218;-72
2022/02/18 00:51:49;;;;;;;0.30;0.30;;;7.40;99.90;;;;;;5013811;28;20191;-73
2022/02/18 00:54:15;;;;;;;0.40;0.40;;;7.40;99.90;;;;;;5014043;28;20221;-72
2022/02/18 00:56:41;;;;;;;0.30;0.30;;;7.40;99.90;;;;;;5013725;28;20178;-72
2022/02/18 00:59:08;;;;;;;0.30;0.30;;;7.30;99.90;;;;;;5013396;28;20262;-72
2022/02/18 01:01:34;;;;;;;0.30;0.30;;;7.40;99.90;;;;;;5012522;28;20222;-72
2022/02/18 01:04:00;;;;;;;0.40;0.40;;;7.30;99.90;;;;;;5013810;28;20175;-72
2022/02/18 01:06:26;;;;;;;0.30;0.30;;;7.10;99.90;;;;;;5013756;28;20200;-72
2022/02/18 01:08:53;;;;;;;0.40;0.40;;;7.00;99.90;;;;;;5013994;28;20168;-72
2022/02/18 01:11:19;;;;;;;0.30;0.30;;;6.60;99.90;;;;;;5013855;28;20176;-72
2022/02/18 01:13:45;;;;;;;0.30;0.30;;;7.10;99.90;;;;;;5013706;28;20168;-72
2022/02/18 01:16:11;;;;;;;0.30;0.30;;;;;;;;;;5013878;28;20551;-72
2022/02/18 01:18:37;;;;;;;0.40;0.40;;;6.80;99.90;;;;;;5013741;28;20410;-72
2022/02/18 01:21:03;;;;;;;0.30;0.30;;;7.00;99.90;;;;;;5013867;28;20172;-72
2022/02/18 01:23:29;;;;;;;0.30;0.30;;;7.10;99.90;;;;;;5013569;28;20567;-72
2022/02/18 01:25:55;;;;;;;0.30;0.30;;;7.00;99.90;;;;;;5013429;28;20257;-72
2022/02/18 01:28:21;;;;;;;0.30;0.30;;;7.10;99.90;;;;;;5013574;28;20972;-72
2022/02/18 01:30:46;;;;;;;0.30;0.30;;;7.20;99.90;;;;;;5013613;28;20253;-72
2022/02/18 01:33:12;;;;;;;0.40;0.40;;;7.20;99.90;;;;;;5013449;28;20428;-72
2022/02/18 01:35:38;;;;;;;0.30;0.30;;;7.30;99.90;;;;;;5013627;28;20163;-72
2022/02/18 01:38:05;;;;;;;0.40;0.40;;;;;;;;;;5013621;28;20167;-72
2022/02/18 01:40:32;;;;;;;0.30;0.30;;;7.40;99.90;;;;;;5013590;28;20172;-72
2022/02/18 01:42:58;;;;;;;0.30;0.30;;;7.20;99.90;;;;;;5013368;28;20222;-72
2022/02/18 01:45:24;;;;;;;0.40;0.40;;;7.10;99.90;;;;;;5013479;28;20232;-72
2022/02/18 01:47:49;;;;;;;0.40;0.40;;;7.10;99.90;;;;;;5013407;28;20240;-72
2022/02/18 01:50:15;;;;;;;0.40;0.40;;;7.00;99.90;;;;;;5013713;28;20216;-72
2022/02/18 01:52:44;;;;;;;0.30;0.30;;;7.10;99.90;;;;;;5013178;28;20208;-72
2022/02/18 01:55:11;;;;;;;0.40;0.40;;;7.10;99.90;;;;;;5013163;28;20172;-72
2022/02/18 01:57:58;;;;;;;0.40;0.40;;;7.10;99.90;;;;;;5013345;28;20176;-72
2022/02/18 02:00:29;;;;;;;0.40;0.40;;;7.20;99.90;;;;;;5012020;28;20179;-73
2022/02/18 02:02:56;;;;;;;0.30;0.30;;;7.40;99.90;;;;;;5013215;28;20596;-72
2022/02/18 02:05:22;;;;;;;0.30;0.30;;;7.50;99.90;;;;;;5013266;28;20368;-72
2022/02/18 02:07:48;;;;;;;0.30;0.30;;;7.60;99.90;;;;;;5013136;28;20633;-72
2022/02/18 02:10:15;;;;;;;0.35;0.35;;;7.60;99.90;;;;;;5013411;28;20172;-72
2022/02/18 02:12:50;;;;;;;0.40;0.40;;;7.70;99.90;;;;;;5016283;28;20200;-72
2022/02/18 02:15:18;;;;;;;0.30;0.30;;;7.70;99.90;;;;;;5016701;28;20168;-72
2022/02/18 02:17:45;;;;;;;0.38;0.38;;;7.80;99.90;;;;;;5016971;28;20175;-72
2022/02/18 02:20:12;;;;;;;0.38;0.38;;;7.80;99.90;;;;;;5016917;28;20172;-72
2022/02/18 02:22:39;;;;;;;0.30;0.30;;;7.80;99.90;;;;;;5016877;28;20195;-72
2022/02/18 02:25:06;;;;;;;0.30;0.30;;;7.80;99.90;;;;;;5015187;28;20610;-72
2022/02/18 02:27:32;;;;;;;0.30;0.30;;;7.80;99.90;;;;;;5016567;28;20212;-72
2022/02/18 02:29:58;;;;;;;0.30;0.30;;;7.80;99.90;;;;;;5016686;28;20539;-73
2022/02/18 02:32:25;;;;;;;0.30;0.30;;;7.80;99.90;;;;;;5016572;28;20195;-72
2022/02/18 02:34:51;;;;;;;0.40;0.40;;;7.80;99.90;;;;;;5016375;28;20897;-72
2022/02/18 02:37:16;;;;;;;0.30;0.30;;;7.80;99.90;;;;;;5016278;28;20540;-72
2022/02/18 02:39:42;;;;;;;0.30;0.30;;;7.90;99.90;;;;;;5016427;28;20256;-72
2022/02/18 02:42:08;;;;;;;0.40;0.40;;;7.80;99.90;;;;;;5016230;28;20685;-72
2022/02/18 02:44:35;;;;;;;0.40;0.40;;;7.90;99.90;;;;;;5016284;28;20179;-72
2022/02/18 02:47:01;;;;;;;0.40;0.40;;;7.90;99.90;;;;;;5016178;28;20257;-72
2022/02/18 02:49:27;;;;;;;0.30;0.30;;;8.00;99.90;;;;;;5016316;28;20230;-72
2022/02/18 02:51:52;;;;;;;0.40;0.40;;;8.00;99.90;;;;;;5015907;28;20659;-72
2022/02/18 02:54:19;;;;;;;0.30;0.30;;;8.10;99.90;;;;;;5016506;28;20208;-72
2022/02/18 02:56:45;;;;;;;0.30;0.30;;;8.00;99.90;;;;;;5015915;28;20524;-72
2022/02/18 02:59:10;;;;;;;0.30;0.30;;;8.00;99.90;;;;;;5016105;28;20691;-72
2022/02/18 03:01:36;;;;;;;0.40;0.40;;;7.70;99.90;;;;;;5016015;28;20434;-72
2022/02/18 03:04:02;;;;;;;0.30;0.30;;;7.70;99.90;;;;;;5015870;28;20209;-72
2022/02/18 03:06:27;;;;;;;0.30;0.30;;;7.70;99.90;;;;;;5014337;28;20582;-72
2022/02/18 03:08:54;;;;;;;0.30;0.30;;;7.60;99.90;;;;;;5015827;28;20482;-72
2022/02/18 03:11:21;;;;;;;0.30;0.30;;;7.40;99.90;;;;;;5015877;28;20170;-72
2022/02/18 03:13:53;;;;;;;0.35;0.35;;;7.50;99.90;;;;;;5015686;28;20635;-72
2022/02/18 03:16:20;;;;;;;0.30;0.30;;;7.60;99.90;;;;;;5015594;28;20180;-72
2022/02/18 03:18:47;;;;;;;0.30;0.30;;;7.50;99.90;;;;;;5014365;28;20264;-72
2022/02/18 03:21:14;;;;;;;0.30;0.30;;;7.40;99.90;;;;;;5015511;28;20177;-72
2022/02/18 03:23:45;;;;;;;0.30;0.30;;;7.30;99.90;;;;;;5015145;28;20185;-72
2022/02/18 03:26:19;;;;;;;0.30;0.30;;;7.30;99.90;;;;;;5015379;28;20197;-72
2022/02/18 03:28:45;;;;;;;0.30;0.30;;;7.40;99.90;;;;;;5015607;28;20195;-72
2022/02/18 03:31:11;;;;;;;0.30;0.30;;;7.40;99.90;;;;;;5015279;28;20253;-72
2022/02/18 03:33:40;;;;;;;0.30;0.30;;;7.30;99.90;;;;;;5015339;28;20490;-72
2022/02/18 03:36:07;;;;;;;0.30;0.30;;;7.40;99.90;;;;;;5015195;28;20425;-72
2022/02/18 03:38:34;;;;;;;0.38;0.38;;;7.40;99.90;;;;;;5015375;28;20646;-72
2022/02/18 03:41:00;;;;;;;0.40;0.40;;;7.40;99.90;;;;;;5015375;28;20590;-72
2022/02/18 03:43:26;;;;;;;0.40;0.40;;;7.50;99.90;;;;;;5015086;28;20549;-72
2022/02/18 03:45:52;;;;;;;0.30;0.30;;;7.50;99.90;;;;;;5014904;28;20213;-72
2022/02/18 03:48:18;;;;;;;0.30;0.30;;;7.50;99.90;;;;;;5015251;28;20168;-72
2022/02/18 03:50:44;;;;;;;0.40;0.40;;;7.30;99.90;;;;;;5015088;28;20183;-72
2022/02/18 03:53:10;;;;;;;0.30;0.30;;;7.30;99.90;;;;;;5014841;28;20207;-72
2022/02/18 03:55:36;;;;;;;0.40;0.40;;;7.40;99.90;;;;;;5015024;28;20176;-72
2022/02/18 03:58:02;;;;;;;0.35;0.35;;;7.30;99.90;;;;;;5015092;28;20171;-72
2022/02/18 04:00:28;;;;;;;0.40;0.40;;;7.30;99.90;;;;;;5014834;28;20179;-72
2022/02/18 04:02:53;;;;;;;0.30;0.30;;;7.20;99.90;;;;;;5014720;28;20246;-72
2022/02/18 04:05:19;;;;;;;0.30;0.30;;;7.10;99.90;;;;;;5014662;28;20175;-72
2022/02/18 04:07:45;;;;;;;0.33;0.33;;;7.00;99.90;;;;;;5014739;28;20261;-72
2022/02/18 04:10:11;;;;;;;0.30;0.30;;;7.00;99.90;;;;;;5014914;28;20165;-72
2022/02/18 04:12:37;;;;;;;0.30;0.30;;;7.00;99.90;;;;;;5014530;28;20570;-72
2022/02/18 04:15:03;;;;;;;0.30;0.30;;;7.00;99.90;;;;;;5014456;28;20572;-72
2022/02/18 04:17:29;;;;;;;0.30;0.30;;;7.00;99.90;;;;;;5014467;28;20507;-72
2022/02/18 04:19:55;;;;;;;0.30;0.30;;;7.00;99.90;;;;;;5014473;28;20182;-72
2022/02/18 04:22:21;;;;;;;0.30;0.30;;;7.10;99.90;;;;;;5014374;28;20603;-72
2022/02/18 04:24:47;;;;;;;0.30;0.30;;;7.10;99.90;;;;;;5014362;28;20211;-72
2022/02/18 04:27:12;;;;;;;0.30;0.30;;;7.20;99.90;;;;;;5014177;28;20448;-72
2022/02/18 04:29:38;;;;;;;0.30;0.30;;;7.20;99.90;;;;;;5014833;28;20406;-72
2022/02/18 04:32:05;;;;;;;0.40;0.40;;;7.30;99.90;;;;;;5014613;28;20718;-72
2022/02/18 04:34:30;;;;;;;0.30;0.30;;;7.30;99.90;;;;;;5013583;28;20176;-72
2022/02/18 04:36:56;;;;;;;0.80;0.80;;;7.30;99.90;;;;;;5014299;28;20297;-72
2022/02/18 04:39:23;;;;;;;0.37;0.37;;;7.30;99.90;;;;;;5014414;28;20171;-72
2022/02/18 04:41:49;;;;;;;0.32;0.32;;;7.40;99.90;;;;;;5014202;28;20188;-73
2022/02/18 04:44:16;;;;;;;0.30;0.30;;;7.40;99.90;;;;;;5014103;28;20178;-72
2022/02/18 04:46:44;;;;;;;0.30;0.30;;;7.50;99.90;;;;;;5013980;28;20197;-72
2022/02/18 04:49:10;;;;;;;0.30;0.30;;;7.60;99.90;;;;;;5014252;28;20252;-72
2022/02/18 04:51:39;;;;;;;0.30;0.30;;;7.60;99.90;;;;;;5014060;28;20220;-72
2022/02/18 04:54:05;;;;;;;0.30;0.30;;;7.60;99.90;;;;;;5013877;28;20183;-71
2022/02/18 04:56:32;;;;;;;0.30;0.30;;;7.70;99.90;;;;;;5013666;28;20204;-72
2022/02/18 04:58:57;;;;;;;0.30;0.30;;;7.60;99.90;;;;;;5013917;28;20198;-72
2022/02/18 05:01:23;;;;;;;0.40;0.40;;;7.50;99.90;;;;;;5014154;28;20645;-72
2022/02/18 05:03:50;;;;;;;0.30;0.30;;;7.70;99.90;;;;;;5013967;28;20255;-72
2022/02/18 05:06:16;;;;;;;0.30;0.30;;;8.00;99.90;;;;;;5012317;28;20455;-72
2022/02/18 05:08:42;;;;;;;0.40;0.40;;;7.70;99.90;;;;;;5013973;28;20220;-72
2022/02/18 05:11:08;;;;;;;0.30;0.30;;;7.80;99.90;;;;;;5014409;28;20203;-72
2022/02/18 05:13:33;;;;;;;0.37;0.37;;;7.70;99.90;;;;;;5013651;28;20218;-72
2022/02/18 05:16:01;;;;;;;0.40;0.40;;;7.70;99.90;;;;;;5013604;28;20199;-72
2022/02/18 05:18:26;;;;;;;0.30;0.30;;;8.00;99.90;;;;;;5013911;28;20554;-72
2022/02/18 05:20:52;;;;;;;0.40;0.40;;;8.10;99.90;;;;;;5013820;28;20177;-72
2022/02/18 05:23:18;;;;;;;0.40;0.40;;;7.80;99.90;;;;;;5013565;28;20214;-72
2022/02/18 05:25:44;;;;;;;0.30;0.30;;;;;;;;;;5013339;28;20175;-72
2022/02/18 05:28:09;;;;;;;0.30;0.30;;;7.90;99.90;;;;;;5012382;28;20172;-72
2022/02/18 05:30:35;;;;;;;0.40;0.40;;;8.00;99.90;;;;;;5013631;28;20203;-72
2022/02/18 05:33:02;;;;;;;0.30;0.30;;;7.90;99.90;;;;;;5013682;28;20667;-72
2022/02/18 05:35:28;;;;;;;0.30;0.30;;;7.90;99.90;;;;;;5013516;28;20163;-72
2022/02/18 05:37:54;;;;;;;0.30;0.30;;;8.00;99.90;;;;;;5013675;28;20181;-72
2022/02/18 05:40:19;;;;;;;0.30;0.30;;;8.30;99.90;;;;;;5013434;28;20426;-72
2022/02/18 05:42:45;;;;;;;0.30;0.30;;;8.00;99.90;;;;;;5013513;28;20279;-72
2022/02/18 05:45:11;;;;;;;0.30;0.30;;;8.10;99.90;;;;;;5014282;28;20185;-72
2022/02/18 05:47:37;;;;;;;0.40;0.40;;;8.00;99.90;;;;;;5016120;28;20210;-72
2022/02/18 05:50:05;;;;;;;0.60;0.60;;;8.00;99.90;;;;;;5017488;28;20199;-72
2022/02/18 05:52:31;;;;;;;0.30;0.30;;;8.10;99.90;;;;;;5015864;28;20534;-72
2022/02/18 05:54:56;;;;;;;0.30;0.30;;;8.10;99.90;;;;;;5017180;28;20256;-72
2022/02/18 05:57:22;;;;;;;0.30;0.30;;;8.10;99.90;;;;;;5017033;28;20588;-73
2022/02/18 05:59:47;;;;;;;0.30;0.30;;;7.90;99.90;;;;;;5017316;28;20171;-72
2022/02/18 06:02:13;;;;;;;0.30;0.30;;;7.90;99.90;;;;;;5017092;28;20203;-72
2022/02/18 06:04:39;;;;;;;0.30;0.30;;;7.90;99.90;;;;;;5015793;28;20208;-72
2022/02/18 06:07:04;;;;;;;0.30;0.30;;;7.90;99.90;;;;;;5016930;28;20206;-72
2022/02/18 06:09:30;;;;;;;0.40;0.40;;;7.90;99.90;;;;;;5015895;28;20264;-72
2022/02/18 06:11:56;;;;;;;1.10;1.10;;;8.00;99.90;;;;;;5016994;28;20194;-72
2022/02/18 06:14:21;;;;;;;0.30;0.30;;;8.00;99.90;;;;;;5016937;28;20201;-72
2022/02/18 06:16:47;;;;;;;0.30;0.30;;;8.00;99.90;;;;;;5016829;28;20169;-72
2022/02/18 06:19:12;;;;;;;0.30;0.30;;;8.00;99.90;;;;;;5016921;28;20177;-72
2022/02/18 06:21:40;;;;;;;0.30;0.30;;;8.00;99.90;;;;;;5016840;28;20201;-72
2022/02/18 06:24:10;;;;;;;0.30;0.30;;;7.90;99.90;;;;;;5016888;28;20168;-72
2022/02/18 06:26:36;;;;;;;0.30;0.30;;;7.90;99.90;;;;;;5016413;28;20213;-72
2022/02/18 06:29:02;;;;;;;0.30;0.30;;;7.90;99.90;;;;;;5016816;28;20534;-72
2022/02/18 06:31:28;;;;;;;0.30;0.30;;;7.80;99.90;;;;;;5016626;28;20243;-72
2022/02/18 06:33:54;;;;;;;0.30;0.30;;;7.80;99.90;;;;;;5016558;28;20265;-72
2022/02/18 06:36:19;;;;;;;0.33;0.33;;;7.90;99.90;;;;;;5016247;28;20410;-72
2022/02/18 06:38:45;;;;;;;0.40;0.40;;;7.90;99.90;;;;;;5016393;28;20758;-72
2022/02/18 06:41:12;;;;;;;0.30;0.30;;;8.10;99.90;;;;;;5016311;28;20188;-72
2022/02/18 06:43:37;;;;;;;0.30;0.30;;;7.90;99.90;;;;;;5016285;28;20709;-72
2022/02/18 06:46:03;;;;;;;0.30;0.30;;;7.80;99.90;;;;;;5016043;28;20209;-73
2022/02/18 06:48:29;;;;;;;0.30;0.30;;;7.90;99.90;;;;;;5016382;28;20474;-72
2022/02/18 06:50:55;;;;;;;0.40;0.40;;;7.80;99.90;;;;;;5016282;28;20409;-72
2022/02/18 06:53:20;;;;;;;0.30;0.30;;;7.90;99.90;;;;;;5015962;28;20207;-72
2022/02/18 06:55:46;;;;;;;0.30;0.30;;;7.80;99.90;;;;;;5015939;28;20219;-72
2022/02/18 06:58:12;;;;;;;0.30;0.30;;;8.00;99.90;;;;;;5015333;28;20195;-72
2022/02/18 07:00:38;;;;;;;0.40;0.40;;;8.10;99.90;;;;;;5016231;28;20181;-72
2022/02/18 07:03:04;;;;;;;0.30;0.30;;;8.00;99.90;;;;;;5015935;28;20922;-72
2022/02/18 07:05:30;;;;;;;0.40;0.40;;;8.10;99.90;;;;;;5014568;28;20192;-72
2022/02/18 07:07:56;;;;;;;0.30;0.30;;;8.10;99.90;;;;;;5014569;28;20243;-72
2022/02/18 07:10:21;;;;;;;0.30;0.30;;;8.10;99.90;;;;;;5016167;28;20481;-72
2022/02/18 07:12:47;;;;;;;0.30;0.30;;;8.10;99.90;;;;;;5015699;28;20283;-72
2022/02/18 07:15:13;;;;;;;0.30;0.30;;;8.20;99.90;;;;;;5015749;28;20173;-72
2022/02/18 07:17:38;;;;;;;0.30;0.30;;;8.30;99.90;;;;;;5015822;28;20206;-72
2022/02/18 07:20:08;;;;;;;0.30;0.30;;;8.30;99.90;;;;;;5015770;28;20185;-72
2022/02/18 07:22:36;;;;;;;0.30;0.30;;;8.30;99.90;;;;;;5015489;28;20197;-72
2022/02/18 07:25:04;;;;;;;0.30;0.30;;;8.40;99.90;;;;;;5015459;28;20198;-72
2022/02/18 07:27:29;;;;;;;0.30;0.30;;;8.40;99.90;;;;;;5015519;28;20206;-72
2022/02/18 07:29:55;;;;;;;0.30;0.30;;;8.60;99.90;;;;;;5015595;28;20537;-72
2022/02/18 07:32:24;;;;;;;0.40;0.40;;;8.80;99.90;;;;;;5015487;28;20187;-72
2022/02/18 07:34:50;;;;;;;0.30;0.30;;;8.90;99.90;;;;;;5015270;28;20633;-72
2022/02/18 07:37:16;;;;;;;0.30;0.30;;;9.00;99.50;;;;;;5015149;28;20632;-72
2022/02/18 07:39:42;;;;;;;0.30;0.30;;;9.20;99.60;;;;;;5015283;28;20171;-72
2022/02/18 07:42:09;;;;;;;0.30;0.30;;;9.40;99.20;;;;;;5015297;28;20711;-73
2022/02/18 07:44:35;;;;;;;0.30;0.30;;;10.00;97.90;;;;;;5015169;28;20168;-72
2022/02/18 07:47:00;;;;;;;0.30;0.30;;;10.50;96.60;;;;;;5015059;28;20540;-72
2022/02/18 07:49:26;;;;;;;0.30;0.30;;;11.00;95.80;;;;;;5015240;28;20178;-73
2022/02/18 07:51:52;;;;;;;0.30;0.30;;;12.10;94.30;;;;;;5014822;28;20191;-73
2022/02/18 07:54:17;;;;;;;0.30;0.30;;;13.10;91.50;;;;;;5015082;28;20168;-72
2022/02/18 07:56:43;;;;;;;0.30;0.30;;;13.10;90.60;;;;;;5014872;28;20198;-73
2022/02/18 07:59:09;;;;;;;0.30;0.30;;;13.10;90.70;;;;;;5013795;28;20924;-73
2022/02/18 08:01:35;;;;;;;0.30;0.30;;;13.20;90.40;;;;;;5014953;28;20521;-72
2022/02/18 08:04:01;;;;;;;0.40;0.40;;;13.50;89.90;;;;;;5014774;28;20490;-73
2022/02/18 08:06:26;;;;;;;0.30;0.30;;;14.00;88.30;;;;;;5014542;28;20557;-72
2022/02/18 08:08:53;;;;;;;0.30;0.30;;;14.30;87.30;;;;;;5013725;28;20180;-73
2022/02/18 08:11:19;;;;;;;0.30;0.30;;;14.20;90.90;;;;;;5013476;28;20175;-73
2022/02/18 08:13:45;;;;;;;0.30;0.30;;;14.10;87.00;;;;;;5014818;28;20814;-73
2022/02/18 08:16:13;;;;;;;0.30;0.30;;;14.00;87.30;;;;;;5014417;28;20407;-73
2022/02/18 08:18:41;;;;;;;0.30;0.30;;;14.10;86.40;;;;;;5014555;28;20498;-73
2022/02/18 08:21:08;;;;;;;0.30;0.30;;;14.10;86.50;;;;;;5014708;28;20415;-73
2022/02/18 08:23:33;;;;;;;0.30;0.30;;;13.80;86.40;;;;;;5014353;28;21007;-73
2022/02/18 08:25:59;;;;;;;0.30;0.30;;;13.30;88.10;;;;;;5014432;28;20502;-72
2022/02/18 08:28:25;;;;;;;0.30;0.30;;;13.20;89.20;;;;;;5014506;28;20497;-73
2022/02/18 08:30:50;;;;;;;0.30;0.30;;;13.10;89.90;;;;;;5013237;28;20178;-73
2022/02/18 08:33:16;;;;;;;0.30;0.30;;;13.10;90.30;;;;;;5014514;28;20196;-73
2022/02/18 08:35:42;;;;;;;0.30;0.30;;;13.00;90.20;;;;;;5014176;28;20171;-73
2022/02/18 08:38:08;;;;;;;0.30;0.30;;;12.90;90.70;;;;;;5014304;28;20163;-73
2022/02/18 08:40:34;;;;;;;0.30;0.30;;;12.70;90.90;;;;;;5014283;28;20755;-72
2022/02/18 08:43:03;;;;;;;0.30;0.30;;;12.80;91.30;;;;;;5014125;28;20623;-72
2022/02/18 08:45:30;;;;;;;0.30;0.30;;;12.70;91.20;;;;;;5014097;28;20807;-73
2022/02/18 08:47:56;;;;;;;0.30;0.30;;;12.80;91.50;;;;;;5014006;28;20533;-73
2022/02/18 08:50:22;;;;;;;0.30;0.30;;;12.80;91.50;;;;;;5014369;28;20477;-73
2022/02/18 08:52:48;;;;;;;0.30;0.30;;;12.80;91.70;;;;;;5014112;28;20454;-73
2022/02/18 08:55:15;;;;;;;0.30;0.30;;;12.80;91.70;;;;;;5013878;28;20885;-73
2022/02/18 08:57:43;;;;;;;0.30;0.30;;;12.70;92.10;;;;;;5014107;28;20193;-73
2022/02/18 09:00:10;;;;;;;0.30;0.30;;;12.60;92.20;;;;;;5014079;28;20182;-73
2022/02/18 09:02:36;;;;;;;0.30;0.30;;;12.50;92.50;;;;;;5013779;28;20211;-72
2022/02/18 09:05:03;;;;;;;0.30;0.30;;;12.40;92.20;;;;;;5013912;28;20182;-73
2022/02/18 09:07:29;;;;;;;0.30;0.30;;;12.20;92.60;;;;;;5013832;28;20285;-73
2022/02/18 09:09:56;;;;;;;0.30;0.30;;;12.20;93.20;;;;;;5013998;28;20186;-73
2022/02/18 09:12:22;;;;;;;0.30;0.30;;;12.20;93.30;;;;;;5013738;28;20187;-73
2022/02/18 09:14:48;;;;;;;0.30;0.30;;;12.20;93.10;;;;;;5013701;28;20202;-73
2022/02/18 09:17:14;;;;;;;0.30;0.30;;;12.30;93.20;;;;;;5013625;28;20402;-73
2022/02/18 09:19:40;;;;;;;0.30;0.30;;;;;;;;;;5013377;28;20255;-73
2022/02/18 09:22:05;;;;;;;0.30;0.30;;;12.50;93.00;;;;;;5013715;28;20539;-73
2022/02/18 09:24:32;;;;;;;0.30;0.30;;;12.80;92.70;;;;;;5013942;28;20441;-73
2022/02/18 09:26:57;;;;;;;0.30;0.30;;;13.10;92.60;;;;;;5013635;28;20282;-73
2022/02/18 09:29:23;;;;;;;0.30;0.30;;;13.30;92.00;;;;;;5013728;28;20817;-73
2022/02/18 09:31:49;;;;;;;0.40;0.40;;;13.60;92.10;;;;;;5012290;28;20195;-73
2022/02/18 09:34:14;;;;;;;0.30;0.30;;;13.80;91.60;;;;;;5013668;28;20171;-73
2022/02/18 09:36:40;;;;;;;0.30;0.30;;;14.40;90.80;;;;;;5013471;28;20188;-73
2022/02/18 09:39:07;;;;;;;0.30;0.30;;;15.10;90.00;;;;;;5013637;28;20216;-73
2022/02/18 09:41:36;;;;;;;0.30;0.30;;;16.30;87.40;;;;;;5013589;28;20660;-73
2022/02/18 09:44:02;;;;;;;0.30;0.30;;;16.90;82.30;;;;;;5013418;28;20408;-73
2022/02/18 09:46:29;;;;;;;0.30;0.30;;;17.00;81.40;;;;;;5013259;28;20883;-73
2022/02/18 09:48:55;;;;;;;0.30;0.30;;;17.00;81.60;;;;;;5013630;28;20773;-73
2022/02/18 09:51:21;;;;;;;0.40;0.40;;;16.30;91.90;;;;;;5013555;28;20403;-72
2022/02/18 09:53:48;;;;;;;0.30;0.30;;;16.20;81.50;;;;;;5013261;28;20434;-73
2022/02/18 09:56:16;;;;;;;0.30;0.30;;;15.80;83.30;;;;;;5013197;28;20938;-73
2022/02/18 09:58:43;;;;;;;0.30;0.30;;;15.70;84.40;;;;;;5013204;28;20786;-73
2022/02/18 10:01:11;;;;;;;0.30;0.30;;;15.60;84.10;;;;;;5013498;28;20904;-73
2022/02/18 10:03:38;;;;;;;0.30;0.30;;;15.50;84.70;;;;;;5013244;28;20403;-73
2022/02/18 10:06:04;;;;;;;0.30;0.30;;;15.40;85.30;;;;;;5013239;28;20454;-73
2022/02/18 10:08:31;;;;;;;0.30;0.30;;;15.50;85.30;;;;;;5013446;28;20767;-73
2022/02/18 10:11:02;;;;;;;0.30;0.30;;;15.80;84.70;;;;;;5013337;28;20163;-73
2022/02/18 10:13:31;;;;;;;0.30;0.30;;;16.40;83.00;;;;;;5013116;28;20418;-73
2022/02/18 10:15:59;;;;;;;0.30;0.30;;;16.80;80.00;;;;;;5013211;28;20411;-73
2022/02/18 10:18:26;;;;;;;0.30;0.30;;;17.20;79.90;;;;;;5011968;28;20429;-73
2022/02/18 10:20:53;;;;;;;0.30;0.30;;;18.30;78.10;;;;;;5013331;28;20418;-73
2022/02/18 10:23:21;;;;;;;0.30;0.30;;;19.90;73.80;;;;;;5012999;28;20563;-73
2022/02/18 10:25:52;;;;;;;0.30;0.30;;;21.90;67.00;;;;;;5011738;28;20416;-73
2022/02/18 10:28:20;;;;;;;0.30;0.30;;;22.90;59.90;;;;;;5013243;28;20500;-73
2022/02/18 10:30:46;;;;;;;0.30;0.30;;;23.10;57.80;;;;;;5013214;28;20765;-73
2022/02/18 10:33:22;;;;;;;0.30;0.30;;;22.50;56.70;;;;;;5015310;28;20426;-73
2022/02/18 10:35:58;;;;;;;0.30;0.30;;;21.50;57.90;;;;;;5016487;28;20184;-73
2022/02/18 10:38:35;;;;;;;0.30;0.30;;;20.90;59.30;;;;;;5016390;28;20410;-73
2022/02/18 10:41:14;;;;;;;0.30;0.30;;;20.60;59.60;;;;;;5016624;28;20408;-73
2022/02/18 10:43:45;;;;;;;0.30;0.30;;;20.40;59.80;;;;;;5016412;28;20399;-73
2022/02/18 10:46:11;;;;;;;0.50;0.50;;;20.00;61.50;;;;;;5016071;28;20454;-73
2022/02/18 10:48:53;;;;;;;0.30;0.30;;;19.60;61.70;;;;;;5016360;28;20414;-73
2022/02/18 10:51:24;;;;;;;0.30;0.30;;;19.00;79.20;;;;;;5016186;28;20575;-73
2022/02/18 10:53:51;;;;;;;0.30;0.30;;;18.80;64.10;;;;;;5016116;28;20436;-73
2022/02/18 10:56:19;;;;;;;0.30;0.30;;;18.40;65.50;;;;;;5015979;28;20621;-73
2022/02/18 10:58:50;;;;;;;0.30;0.30;;;18.40;66.40;;;;;;5016197;28;20408;-73
2022/02/18 11:01:27;;;;;;;0.30;0.30;;;18.60;86.80;;;;;;5015880;28;20407;-73
2022/02/18 11:04:03;;;;;;;0.30;0.30;;;18.50;66.70;;;;;;5016141;28;20523;-73
2022/02/18 11:06:34;;;;;;;0.30;0.30;;;19.60;64.80;;;;;;5015643;28;20453;-73
2022/02/18 11:09:04;;;;;;;0.30;0.30;;;20.40;61.50;;;;;;5016210;28;20887;-73
2022/02/18 11:11:40;;;;;;;0.30;0.30;;;22.10;77.50;;;;;;5015965;28;20439;-73
2022/02/18 11:14:09;;;;;;;0.30;0.30;;;22.00;58.10;;;;;;5015864;28;20410;-73
2022/02/18 11:16:38;;;;;;;0.30;0.30;;;22.20;56.80;;;;;;5015501;28;20418;-73
2022/02/18 11:19:04;;;;;;;0.30;0.30;;;22.10;57.30;;;;;;5015685;28;20461;-73
2022/02/18 11:21:30;;;;;;;0.30;0.30;;;20.70;74.80;;;;;;5015666;28;20410;-73
2022/02/18 11:23:58;;;;;;;0.30;0.30;;;20.70;57.70;;;;;;5014294;28;20424;-73
2022/02/18 11:26:26;;;;;;;0.30;0.30;;;19.80;59.20;;;;;;5015305;28;20492;-73
2022/02/18 11:28:53;;;;;;;0.30;0.30;;;19.00;60.80;;;;;;5015698;28;20427;-73
2022/02/18 11:31:30;;;;;;;0.30;0.30;;;18.00;78.80;;;;;;5015588;28;20417;-73
2022/02/18 11:34:14;;;;;;;0.30;0.30;;;17.90;64.80;;;;;;5015502;28;20481;-73
2022/02/18 11:36:58;;;;;;;0.30;0.30;;;17.90;66.50;;;;;;5015117;28;20403;-73
2022/02/18 11:39:45;;;;;;;0.30;0.30;;;17.90;66.90;;;;;;5015513;28;20493;-73
2022/02/18 11:42:34;;;;;;;0.30;0.30;;;17.40;66.00;;;;;;5015305;28;20912;-73
2022/02/18 11:45:00;;;;;;;0.30;0.30;;;17.10;68.20;;;;;;5015263;28;20868;-73
2022/02/18 11:47:33;;;;;;;0.30;0.30;;;17.10;69.50;;;;;;5015442;28;20493;-73
2022/02/18 11:50:13;;;;;;;0.30;0.30;;;17.00;69.20;;;;;;5015326;28;20176;-73
2022/02/18 11:52:46;;;;;;;3.03;2.93;;;17.00;91.90;;;;;;5014870;28;20519;-73
2022/02/18 11:55:31;;;;;;;0.30;0.30;;;17.20;69.80;;;;;;5014829;28;20386;-73
2022/02/18 11:58:07;;;;;;;0.30;0.30;;;17.20;69.50;;;;;;5014890;28;20900;-73
2022/02/18 12:00:49;;;;;;;0.40;0.40;;;17.20;69.80;;;;;;5015109;28;20463;-73
2022/02/18 12:03:25;;;;;;;0.30;0.30;;;17.20;69.90;;;;;;5014856;28;20461;-73
2022/02/18 12:06:16;;;;;;;0.30;0.30;;;17.40;69.80;;;;;;5014518;28;20795;-73
2022/02/18 12:08:49;;;;;;;0.30;0.30;;;17.10;69.70;;;;;;5015021;28;20952;-73
2022/02/18 12:11:19;;;;;;;0.30;0.30;;;17.00;85.30;;;;;;5013496;28;20788;-73
2022/02/18 12:14:05;;;;;;;0.30;0.30;;;17.00;70.30;;;;;;5014590;28;20415;-73
2022/02/18 12:16:31;;;;;;;0.30;0.30;;;17.00;70.70;;;;;;5014405;28;20493;-73
2022/02/18 12:19:05;;;;;;;0.30;0.30;;;17.10;70.50;;;;;;5014766;28;20439;-73
2022/02/18 12:21:32;;;;;;;0.30;0.30;;;17.40;90.50;;;;;;5014642;28;20413;-73
2022/02/18 12:24:36;;;;;;;0.30;0.30;;;17.20;70.00;;;;;;5014507;28;20445;-73
2022/02/18 12:27:20;;;;;;;0.30;0.30;;;17.10;70.30;;;;;;5014206;28;20490;-73
2022/02/18 12:29:46;;;;;;;0.40;0.40;;;17.00;70.40;;;;;;5014669;28;20758;-73
2022/02/18 12:32:13;;;;;;;0.30;0.30;;;16.90;71.30;;;;;;5014471;28;20434;-73
2022/02/18 12:34:41;;;;;;;0.30;0.30;;;16.60;71.70;;;;;;5013006;28;20415;-73
2022/02/18 12:37:11;;;;;;;0.30;0.30;;;16.50;70.90;;;;;;5012817;28;20813;-73
2022/02/18 12:39:44;;;;;;;0.40;0.40;;;16.30;72.30;;;;;;5014224;28;20418;-73
2022/02/18 12:42:13;;;;;;;0.30;0.30;;;15.80;72.60;;;;;;5014331;28;20465;-73
2022/02/18 12:44:46;;;;;;;0.30;0.30;;;15.20;75.90;;;;;;5014098;28;20909;-73
2022/02/18 12:47:17;;;;;;;0.30;0.30;;;14.60;78.40;;;;;;5014055;28;20887;-73
2022/02/18 12:49:43;;;;;;;0.40;0.40;;;14.70;79.50;;;;;;5014109;28;20407;-73
2022/02/18 12:52:10;;;;;;;0.30;0.30;;;14.60;78.80;;;;;;5013849;28;20476;-73
2022/02/18 12:54:46;;;;;;;0.30;0.30;;;14.50;80.00;;;;;;5013465;28;20203;-73
2022/02/18 12:57:24;;;;;;;0.30;0.30;;;14.10;80.90;;;;;;5013939;28;20879;-73